Time;durP1;ratioP1;P1;durP2;ratioP2;P2;SDS_P1;SDS_P2;PMS_P1;PMS_P2;Temp;Humidity;BMP_temperature;BMP_pressure;BME280_temperature;BME280_humidity;BME280_pressure;Samples;Min_cycle;Max_cycle;Signal;HPM_P1;HPM_P2
2020/12/24 00:01:41;;;;;;;5.57;4.60;;;10.10;99.90;;;;;;4955036;29;20195;-48
2020/12/24 00:04:08;;;;;;;8.50;5.82;;;10.20;99.90;;;;;;4954537;29;20330;-47
2020/12/24 00:06:35;;;;;;;5.68;4.13;;;10.20;99.90;;;;;;4977259;23;20227;-72
2020/12/24 00:09:02;;;;;;;7.97;3.90;;;10.20;99.90;;;;;;4954755;28;20196;-72
2020/12/24 00:11:30;;;;;;;7.28;4.78;;;10.30;99.90;;;;;;4954854;28;20594;-71
2020/12/24 00:13:57;;;;;;;5.00;4.10;;;10.30;99.90;;;;;;4955328;28;20216;-70
2020/12/24 00:16:24;;;;;;;5.90;4.70;;;10.40;99.90;;;;;;4955612;28;20194;-70
2020/12/24 00:18:51;;;;;;;9.18;5.80;;;10.40;99.90;;;;;;4955778;28;20184;-70
2020/12/24 00:21:19;;;;;;;5.13;4.10;;;10.40;99.90;;;;;;4956141;28;20196;-70
2020/12/24 00:23:46;;;;;;;5.70;3.75;;;10.40;99.90;;;;;;4955122;28;20196;-72
2020/12/24 00:26:13;;;;;;;6.30;4.60;;;10.40;99.90;;;;;;4955230;28;20661;-72
2020/12/24 00:28:41;;;;;;;4.33;3.33;;;10.40;99.90;;;;;;4954973;28;20479;-70
2020/12/24 00:31:08;;;;;;;5.43;3.75;;;10.40;99.90;;;;;;4956873;28;20420;-71
2020/12/24 00:33:35;;;;;;;7.32;4.40;;;10.50;99.90;;;;;;4955775;28;20681;-72
2020/12/24 00:36:03;;;;;;;3.53;2.80;;;10.50;99.90;;;;;;4955165;28;20701;-71
2020/12/24 00:38:30;;;;;;;7.03;3.33;;;10.50;99.90;;;;;;4954873;28;20425;-72
2020/12/24 00:40:57;;;;;;;3.53;3.00;;;10.50;99.90;;;;;;4955001;28;20406;-71
2020/12/24 00:43:24;;;;;;;6.72;3.70;;;10.50;99.90;;;;;;4955111;28;20398;-71
2020/12/24 00:45:52;;;;;;;4.00;3.20;;;10.50;99.90;;;;;;4954950;28;20211;-70
2020/12/24 00:48:36;;;;;;;3.90;2.97;;;10.50;99.90;;;;;;4955364;28;20407;-71
2020/12/24 00:51:03;;;;;;;4.72;2.90;;;10.50;99.90;;;;;;4955372;28;20386;-70
2020/12/24 00:53:30;;;;;;;5.80;3.50;;;10.50;99.90;;;;;;4955483;28;20192;-72
2020/12/24 00:55:57;;;;;;;4.28;3.38;;;10.40;99.90;;;;;;4953558;29;20470;-72
2020/12/24 00:58:24;;;;;;;4.20;2.85;;;10.40;99.90;;;;;;4954762;28;20184;-72
2020/12/24 01:00:53;;;;;;;3.17;2.53;;;10.40;99.90;;;;;;4953668;29;20195;-72
2020/12/24 01:03:20;;;;;;;3.60;3.00;;;10.40;99.90;;;;;;4954818;28;20398;-73
2020/12/24 01:05:47;;;;;;;5.20;4.30;;;10.40;99.90;;;;;;4954356;28;20485;-70
2020/12/24 01:08:14;;;;;;;5.37;3.83;;;10.40;99.90;;;;;;4954626;28;20423;-72
2020/12/24 01:10:42;;;;;;;5.05;2.80;;;10.40;99.90;;;;;;4954769;28;20395;-70
2020/12/24 01:13:09;;;;;;;4.82;3.15;;;10.40;99.90;;;;;;4954558;28;20192;-70
2020/12/24 01:15:36;;;;;;;4.25;2.70;;;10.30;99.90;;;;;;4954831;28;20724;-69
2020/12/24 01:18:04;;;;;;;2.90;1.95;;;10.30;99.90;;;;;;4954556;28;20189;-68
2020/12/24 01:20:31;;;;;;;2.75;1.80;;;10.20;99.90;;;;;;4954613;28;20601;-69
2020/12/24 01:22:59;;;;;;;2.27;2.03;;;10.10;99.90;;;;;;4954677;28;20264;-69
2020/12/24 01:25:27;;;;;;;3.45;2.08;;;10.00;99.90;;;;;;4955249;28;20473;-69
2020/12/24 01:27:54;;;;;;;3.40;2.43;;;10.10;99.90;;;;;;4955379;28;20559;-70
2020/12/24 01:30:21;;;;;;;2.70;2.30;;;10.10;99.90;;;;;;4956379;28;21023;-68
2020/12/24 01:32:48;;;;;;;2.10;1.90;;;10.20;99.90;;;;;;4956701;28;20279;-70
2020/12/24 01:35:16;;;;;;;1.55;1.20;;;10.20;99.90;;;;;;4956268;28;20934;-69
2020/12/24 01:37:44;;;;;;;3.95;2.13;;;10.20;99.90;;;;;;4956534;28;20224;-69
2020/12/24 01:40:11;;;;;;;2.90;1.83;;;10.20;99.90;;;;;;4958990;28;20216;-68
2020/12/24 01:42:39;;;;;;;3.95;2.60;;;10.10;99.90;;;;;;4964575;28;20472;-69
2020/12/24 01:45:06;;;;;;;2.03;1.90;;;10.00;99.90;;;;;;4962870;28;20220;-69
2020/12/24 01:47:34;;;;;;;2.30;1.60;;;9.90;99.90;;;;;;4961861;28;20294;-69
2020/12/24 01:50:01;;;;;;;2.72;1.65;;;9.80;99.90;;;;;;4966117;28;20248;-70
2020/12/24 01:52:32;;;;;;;2.65;1.60;;;9.70;99.90;;;;;;4965313;29;20298;-67
2020/12/24 01:55:01;;;;;;;2.40;2.08;;;9.60;99.90;;;;;;4961844;28;20259;-68
2020/12/24 01:57:28;;;;;;;3.08;2.10;;;9.60;99.90;;;;;;4962673;28;20220;-70
2020/12/24 01:59:56;;;;;;;2.95;2.25;;;9.60;99.90;;;;;;4961675;28;20176;-68
2020/12/24 02:02:24;;;;;;;4.00;2.40;;;9.50;99.90;;;;;;4959507;28;20184;-71
2020/12/24 02:04:51;;;;;;;1.50;1.30;;;9.50;99.90;;;;;;4956801;29;20216;-71
2020/12/24 02:07:18;;;;;;;2.70;1.60;;;9.50;99.90;;;;;;4958276;28;20188;-70
2020/12/24 02:09:48;;;;;;;2.90;2.20;;;9.50;99.90;;;;;;4957966;28;20196;-70
2020/12/24 02:12:15;;;;;;;1.80;1.70;;;9.40;99.90;;;;;;4957667;28;20278;-70
2020/12/24 02:14:42;;;;;;;2.70;1.50;;;9.40;99.90;;;;;;4957547;28;20223;-69
2020/12/24 02:17:10;;;;;;;2.22;1.42;;;9.30;99.90;;;;;;4957582;28;20293;-69
2020/12/24 02:19:40;;;;;;;3.13;2.00;;;9.30;99.90;;;;;;4958254;28;20523;-69
2020/12/24 02:22:08;;;;;;;4.28;1.33;;;9.30;99.90;;;;;;4957313;28;20255;-69
2020/12/24 02:24:36;;;;;;;2.60;1.30;;;9.30;99.90;;;;;;4957530;28;20212;-69
2020/12/24 02:27:04;;;;;;;1.30;1.05;;;9.30;99.90;;;;;;4958066;28;20184;-71
2020/12/24 02:29:32;;;;;;;1.60;1.17;;;9.30;99.90;;;;;;4957737;28;20729;-71
2020/12/24 02:31:59;;;;;;;4.20;1.83;;;9.30;99.90;;;;;;4956946;28;20188;-70
2020/12/24 02:34:26;;;;;;;1.75;1.20;;;9.30;99.90;;;;;;4956871;28;20239;-70
2020/12/24 02:36:53;;;;;;;2.05;1.67;;;9.30;99.90;;;;;;4957022;28;20200;-70
2020/12/24 02:39:21;;;;;;;1.20;0.80;;;9.40;99.90;;;;;;4957341;28;20218;-70
2020/12/24 02:41:48;;;;;;;1.52;1.20;;;9.50;99.90;;;;;;4956957;28;20192;-71
2020/12/24 02:44:15;;;;;;;6.45;2.65;;;9.60;99.90;;;;;;4957222;28;20299;-71
2020/12/24 02:46:43;;;;;;;2.33;1.77;;;9.60;99.90;;;;;;4956909;29;20190;-71
2020/12/24 02:49:10;;;;;;;1.60;1.50;;;9.70;99.90;;;;;;4957545;28;20196;-69
2020/12/24 02:51:37;;;;;;;7.85;1.95;;;9.80;99.90;;;;;;4956643;28;20189;-70
2020/12/24 02:54:04;;;;;;;1.42;1.27;;;9.90;99.90;;;;;;4956923;28;20209;-71
2020/12/24 02:56:32;;;;;;;2.10;1.53;;;9.90;99.90;;;;;;4955655;29;20729;-70
2020/12/24 02:58:59;;;;;;;2.40;2.10;;;9.90;99.90;;;;;;4956594;28;20527;-70
2020/12/24 03:01:26;;;;;;;1.93;1.73;;;10.00;99.90;;;;;;4956604;28;20189;-70
2020/12/24 03:03:54;;;;;;;3.35;2.75;;;10.00;99.90;;;;;;4956461;28;20455;-70
2020/12/24 03:06:21;;;;;;;4.22;3.83;;;9.90;99.90;;;;;;4956333;28;20214;-69
2020/12/24 03:08:48;;;;;;;3.95;3.55;;;10.00;99.90;;;;;;4956790;28;20203;-71
2020/12/24 03:11:15;;;;;;;5.32;4.30;;;9.90;99.90;;;;;;4956813;28;20677;-68
2020/12/24 03:13:43;;;;;;;4.53;4.13;;;10.00;99.90;;;;;;4956027;28;20180;-70
2020/12/24 03:16:10;;;;;;;4.65;4.25;;;10.00;99.90;;;;;;4956118;28;20195;-69
2020/12/24 03:18:37;;;;;;;6.80;4.90;;;10.00;99.90;;;;;;4954876;28;20196;-69
2020/12/24 03:21:04;;;;;;;6.82;6.28;;;10.00;99.90;;;;;;4955063;29;20649;-68
2020/12/24 03:23:32;;;;;;;5.75;5.32;;;10.00;99.90;;;;;;4956190;28;20546;-71
2020/12/24 03:25:59;;;;;;;5.90;5.22;;;10.10;99.90;;;;;;4956052;28;20638;-69
2020/12/24 03:28:27;;;;;;;5.00;4.60;;;10.10;99.90;;;;;;4954593;29;20196;-71
2020/12/24 03:30:55;;;;;;;4.28;3.65;;;10.10;99.90;;;;;;4955604;28;20411;-69
2020/12/24 03:33:22;;;;;;;2.85;2.65;;;10.10;99.90;;;;;;4955686;28;20180;-69
2020/12/24 03:35:49;;;;;;;2.15;1.80;;;10.10;99.90;;;;;;4955724;28;20240;-71
2020/12/24 03:38:16;;;;;;;1.55;1.45;;;10.00;99.90;;;;;;4955610;28;20708;-70
2020/12/24 03:40:43;;;;;;;1.35;1.20;;;10.00;99.90;;;;;;4955549;28;20188;-70
2020/12/24 03:43:10;;;;;;;1.75;0.95;;;10.00;99.90;;;;;;4955806;28;20180;-70
2020/12/24 03:45:37;;;;;;;2.20;1.90;;;10.00;99.90;;;;;;4955816;28;20748;-70
2020/12/24 03:48:05;;;;;;;1.52;1.00;;;10.10;99.90;;;;;;4955589;28;20246;-69
2020/12/24 03:50:37;;;;;;;2.70;2.08;;;10.10;99.90;;;;;;4955671;28;20261;-69
2020/12/24 03:53:04;;;;;;;0.98;0.80;;;10.20;99.90;;;;;;4955051;28;20188;-69
2020/12/24 03:55:31;;;;;;;1.73;1.15;;;10.10;99.90;;;;;;4954972;28;20211;-70
2020/12/24 03:57:58;;;;;;;3.25;1.08;;;10.00;99.90;;;;;;4955110;28;20203;-70
2020/12/24 04:00:25;;;;;;;1.38;1.00;;;9.90;99.90;;;;;;4955053;29;20172;-70
2020/12/24 04:02:52;;;;;;;1.67;1.58;;;9.90;99.90;;;;;;4954441;28;20187;-70
2020/12/24 04:05:20;;;;;;;2.75;1.27;;;9.90;99.90;;;;;;4954956;28;20220;-70
2020/12/24 04:07:49;;;;;;;3.58;1.30;;;9.80;99.90;;;;;;4955057;28;20278;-68
2020/12/24 04:10:17;;;;;;;1.40;1.10;;;9.80;99.90;;;;;;4954887;28;20259;-69
2020/12/24 04:12:44;;;;;;;1.17;0.90;;;9.80;99.90;;;;;;4954924;28;20195;-70
2020/12/24 04:15:11;;;;;;;1.10;1.00;;;9.80;99.90;;;;;;4954663;29;20271;-69
2020/12/24 04:17:38;;;;;;;1.63;1.05;;;9.80;99.90;;;;;;4955111;28;20184;-70
2020/12/24 04:20:05;;;;;;;1.10;0.95;;;9.80;99.90;;;;;;4955157;28;20188;-71
2020/12/24 04:22:33;;;;;;;1.35;1.13;;;9.80;99.90;;;;;;4953354;29;20203;-70
2020/12/24 04:25:00;;;;;;;1.00;0.60;;;9.70;99.90;;;;;;4954687;28;20247;-70
2020/12/24 04:27:29;;;;;;;1.73;1.23;;;9.70;99.90;;;;;;4954836;28;20191;-69
2020/12/24 04:29:56;;;;;;;1.67;1.20;;;9.70;99.90;;;;;;4955091;28;20196;-70
2020/12/24 04:32:23;;;;;;;1.40;1.00;;;9.70;99.90;;;;;;4954813;28;20172;-70
2020/12/24 04:34:50;;;;;;;1.50;0.95;;;9.70;99.90;;;;;;4955010;28;20761;-70
2020/12/24 04:37:18;;;;;;;2.05;0.95;;;9.60;99.90;;;;;;4954807;28;20192;-70
2020/12/24 04:39:46;;;;;;;1.30;1.00;;;9.60;99.90;;;;;;4954747;28;20204;-70
2020/12/24 04:42:14;;;;;;;1.58;1.30;;;9.50;99.90;;;;;;4954771;28;20192;-70
2020/12/24 04:44:42;;;;;;;4.30;1.02;;;9.40;99.90;;;;;;4954640;28;20215;-70
2020/12/24 04:47:09;;;;;;;1.02;0.88;;;9.30;99.90;;;;;;4954604;28;20247;-70
2020/12/24 04:49:38;;;;;;;1.35;1.10;;;9.20;99.90;;;;;;4954645;28;20184;-70
2020/12/24 04:52:05;;;;;;;1.48;1.10;;;9.20;99.90;;;;;;4954766;28;20188;-70
2020/12/24 04:54:33;;;;;;;0.90;0.70;;;9.10;99.90;;;;;;4954167;28;20215;-70
2020/12/24 04:57:07;;;;;;;2.70;1.48;;;9.00;99.90;;;;;;4953273;28;20207;-70
2020/12/24 04:59:35;;;;;;;2.75;1.25;;;8.80;99.90;;;;;;4954661;28;20179;-70
2020/12/24 05:02:04;;;;;;;3.55;0.90;;;8.80;99.90;;;;;;4954301;28;20192;-71
2020/12/24 05:04:33;;;;;;;3.08;2.45;;;8.80;99.90;;;;;;4954438;28;20211;-69
2020/12/24 05:07:02;;;;;;;2.00;1.45;;;8.80;99.90;;;;;;4954375;28;20680;-69
2020/12/24 05:09:29;;;;;;;1.75;1.15;;;8.90;99.90;;;;;;4954195;28;20227;-68
2020/12/24 05:11:56;;;;;;;1.17;0.98;;;8.90;99.90;;;;;;4954571;28;20176;-69
2020/12/24 05:14:25;;;;;;;4.03;1.55;;;9.00;99.90;;;;;;4954380;28;20223;-70
2020/12/24 05:16:57;;;;;;;6.55;1.10;;;9.10;99.90;;;;;;4958168;28;20188;-70
2020/12/24 05:19:25;;;;;;;4.68;1.00;;;9.10;99.90;;;;;;4958296;28;20194;-71
2020/12/24 05:21:52;;;;;;;1.50;0.80;;;9.20;99.90;;;;;;4958367;28;20697;-71
2020/12/24 05:24:27;;;;;;;1.98;0.70;;;9.30;99.90;;;;;;4958332;28;20208;-70
2020/12/24 05:27:07;;;;;;;2.90;1.92;;;9.40;99.90;;;;;;4958430;28;20670;-70
2020/12/24 05:29:38;;;;;;;1.58;1.48;;;9.40;99.90;;;;;;4958083;28;20646;-71
2020/12/24 05:32:06;;;;;;;2.30;1.45;;;9.50;99.90;;;;;;4958166;28;20188;-70
2020/12/24 05:34:34;;;;;;;1.77;1.20;;;9.40;99.90;;;;;;4957667;28;20211;-70
2020/12/24 05:37:12;;;;;;;2.03;1.15;;;9.50;99.90;;;;;;4958313;28;20177;-71
2020/12/24 05:39:39;;;;;;;1.80;1.30;;;9.50;99.90;;;;;;4958316;28;20192;-71
2020/12/24 05:42:07;;;;;;;3.60;1.30;;;9.50;99.90;;;;;;4958440;28;20192;-69
2020/12/24 05:44:35;;;;;;;1.45;1.00;;;9.50;99.90;;;;;;4957994;28;20403;-69
2020/12/24 05:47:04;;;;;;;1.98;1.15;;;9.50;99.90;;;;;;4957964;28;20196;-69
2020/12/24 05:49:32;;;;;;;4.63;1.10;;;9.50;99.90;;;;;;4957800;28;20180;-69
2020/12/24 05:52:01;;;;;;;2.45;1.15;;;9.40;99.90;;;;;;4958382;28;20226;-70
2020/12/24 05:54:30;;;;;;;6.10;1.08;;;9.40;99.90;;;;;;4957966;28;20227;-69
2020/12/24 05:56:58;;;;;;;1.92;1.08;;;9.40;99.90;;;;;;4958317;28;20188;-70
2020/12/24 05:59:28;;;;;;;1.20;0.93;;;9.40;99.90;;;;;;4957238;29;20188;-70
2020/12/24 06:02:06;;;;;;;1.15;1.00;;;9.40;99.90;;;;;;4956758;28;20638;-69
2020/12/24 06:04:52;;;;;;;4.90;0.93;;;9.40;99.90;;;;;;4957216;28;20239;-69
2020/12/24 06:07:34;;;;;;;1.65;1.15;;;9.30;99.90;;;;;;4958294;28;20238;-69
2020/12/24 06:10:06;;;;;;;1.50;1.02;;;9.40;99.90;;;;;;4959134;29;20181;-69
2020/12/24 06:12:49;;;;;;;3.35;1.00;;;9.30;99.90;;;;;;4957775;28;20250;-69
2020/12/24 06:15:17;;;;;;;1.77;1.63;;;9.30;99.90;;;;;;4957235;28;20220;-69
2020/12/24 06:17:48;;;;;;;1.35;1.00;;;9.30;99.90;;;;;;4957087;28;20216;-69
2020/12/24 06:20:19;;;;;;;1.83;1.52;;;9.20;99.90;;;;;;4956963;28;20181;-71
2020/12/24 06:22:47;;;;;;;1.80;1.15;;;9.20;99.90;;;;;;4957191;28;20232;-70
2020/12/24 06:25:15;;;;;;;1.83;0.80;;;9.10;99.90;;;;;;4955592;28;20263;-70
2020/12/24 06:27:46;;;;;;;1.83;1.45;;;9.10;99.90;;;;;;4956963;29;20672;-70
2020/12/24 06:30:20;;;;;;;1.13;0.80;;;9.00;99.90;;;;;;4957303;28;20184;-70
2020/12/24 06:32:49;;;;;;;0.98;0.70;;;9.00;99.90;;;;;;4957113;28;20181;-70
2020/12/24 06:35:36;;;;;;;1.00;0.80;;;8.90;99.90;;;;;;4957286;28;20212;-69
2020/12/24 06:38:04;;;;;;;3.85;1.15;;;8.80;99.90;;;;;;4957024;28;20228;-71
2020/12/24 06:40:33;;;;;;;3.70;1.20;;;8.70;99.90;;;;;;4956733;28;20588;-70
2020/12/24 06:43:00;;;;;;;6.82;1.20;;;8.60;99.90;;;;;;4957920;28;20578;-70
2020/12/24 06:45:35;;;;;;;9.60;2.53;;;8.50;99.90;;;;;;4956365;28;20215;-69
2020/12/24 06:48:19;;;;;;;8.70;1.30;;;8.40;99.90;;;;;;4956647;28;20209;-69
2020/12/24 06:50:47;;;;;;;3.80;0.90;;;8.40;99.90;;;;;;4956501;28;20180;-68
2020/12/24 06:53:25;;;;;;;1.00;0.70;;;8.40;99.90;;;;;;4956424;28;20188;-70
2020/12/24 06:56:22;;;;;;;4.55;1.23;;;8.30;99.90;;;;;;4956453;28;20227;-69
2020/12/24 06:58:57;;;;;;;3.85;1.20;;;8.40;99.90;;;;;;4956570;28;20196;-68
2020/12/24 07:01:27;;;;;;;1.00;0.68;;;8.40;99.90;;;;;;4957096;28;20188;-70
2020/12/24 07:03:56;;;;;;;1.02;0.90;;;8.30;99.90;;;;;;4956458;28;20212;-70
2020/12/24 07:06:52;;;;;;;1.10;0.95;;;8.20;99.90;;;;;;4956521;28;20243;-69
2020/12/24 07:09:42;;;;;;;2.45;1.02;;;8.10;99.90;;;;;;4972696;23;20291;-71
2020/12/24 07:12:10;;;;;;;4.53;1.00;;;8.10;99.90;;;;;;4974326;28;20227;-73
2020/12/24 07:14:39;;;;;;;2.03;0.70;;;8.20;99.90;;;;;;4974650;28;20250;-73
2020/12/24 07:17:11;;;;;;;1.35;0.70;;;8.30;99.90;;;;;;4974588;28;20195;-73
2020/12/24 07:19:42;;;;;;;2.30;0.80;;;8.20;99.90;;;;;;4974659;28;20208;-71
2020/12/24 07:22:12;;;;;;;1.30;0.70;;;8.10;99.90;;;;;;4974993;28;20637;-73
2020/12/24 07:24:39;;;;;;;1.00;0.70;;;8.10;99.90;;;;;;4958001;28;20211;-72
2020/12/24 07:27:07;;;;;;;3.45;1.13;;;8.10;99.90;;;;;;4974518;28;20183;-72
2020/12/24 07:29:35;;;;;;;0.80;0.70;;;8.10;99.90;;;;;;4975725;28;20563;-72
2020/12/24 07:32:04;;;;;;;1.45;1.00;;;8.00;99.90;;;;;;4974690;28;20246;-73
2020/12/24 07:34:33;;;;;;;1.42;0.90;;;8.00;99.90;;;;;;4975041;28;20581;-73
2020/12/24 07:37:02;;;;;;;3.63;1.50;;;8.00;99.90;;;;;;4974035;28;20185;-73
2020/12/24 07:39:30;;;;;;;1.50;0.73;;;8.00;99.90;;;;;;4974043;28;20194;-71
2020/12/24 07:41:57;;;;;;;1.20;0.98;;;7.90;99.90;;;;;;4974470;28;20179;-73
2020/12/24 07:44:25;;;;;;;1.70;0.60;;;7.90;99.90;;;;;;4974024;28;20214;-72
2020/12/24 07:47:00;;;;;;;4.45;0.95;;;7.80;99.90;;;;;;4973919;28;20548;-74
2020/12/24 07:49:27;;;;;;;0.77;0.60;;;7.80;99.90;;;;;;4956829;28;20213;-72
2020/12/24 07:51:55;;;;;;;1.40;0.80;;;7.90;99.90;;;;;;4974417;28;20179;-73
2020/12/24 07:54:25;;;;;;;3.47;0.80;;;7.90;99.90;;;;;;4974052;28;20218;-73
2020/12/24 07:56:53;;;;;;;1.25;0.75;;;7.90;99.90;;;;;;4974706;28;20168;-73
2020/12/24 07:59:21;;;;;;;1.27;0.80;;;8.00;99.90;;;;;;4974816;28;20274;-71
2020/12/24 08:01:48;;;;;;;3.80;2.55;;;8.00;99.90;;;;;;4974686;28;20176;-70
2020/12/24 08:04:16;;;;;;;2.30;1.27;;;8.10;99.90;;;;;;4975161;28;20211;-71
2020/12/24 08:06:44;;;;;;;2.65;0.95;;;8.20;99.90;;;;;;4974883;28;20194;-71
2020/12/24 08:09:12;;;;;;;2.15;1.13;;;8.30;99.90;;;;;;4957268;28;20188;-71
2020/12/24 08:11:41;;;;;;;1.42;1.17;;;8.40;99.90;;;;;;4957238;28;20199;-71
2020/12/24 08:14:08;;;;;;;1.80;1.10;;;8.40;99.90;;;;;;4974883;28;20219;-72
2020/12/24 08:16:39;;;;;;;5.25;1.17;;;8.50;99.90;;;;;;4957293;28;20262;-72
2020/12/24 08:19:16;;;;;;;1.30;1.00;;;8.40;99.90;;;;;;4974660;28;20187;-72
2020/12/24 08:21:53;;;;;;;3.85;1.23;;;8.50;99.90;;;;;;4974783;28;20183;-72
2020/12/24 08:24:22;;;;;;;1.10;0.80;;;8.50;99.90;;;;;;4974609;28;20266;-72
2020/12/24 08:26:50;;;;;;;1.70;1.00;;;8.60;99.90;;;;;;4974880;28;20176;-72
2020/12/24 08:29:18;;;;;;;1.25;0.75;;;8.50;99.90;;;;;;4974878;28;20222;-72
2020/12/24 08:31:47;;;;;;;1.17;0.80;;;8.50;99.90;;;;;;4973932;28;20703;-73
2020/12/24 08:34:14;;;;;;;1.45;1.08;;;8.50;99.90;;;;;;4956212;28;20211;-72
2020/12/24 08:36:44;;;;;;;1.25;0.68;;;8.50;99.90;;;;;;4956114;28;20211;-73
2020/12/24 08:39:13;;;;;;;0.80;0.65;;;8.50;99.90;;;;;;4972184;28;20192;-72
2020/12/24 08:41:42;;;;;;;6.60;1.85;;;8.40;99.90;;;;;;4973431;28;20187;-73
2020/12/24 08:44:10;;;;;;;4.00;1.00;;;8.40;99.90;;;;;;4955979;28;20218;-71
2020/12/24 08:46:38;;;;;;;2.13;1.02;;;8.30;99.90;;;;;;4955934;28;20192;-70
2020/12/24 08:49:18;;;;;;;9.77;1.42;;;8.20;99.90;;;;;;4955572;28;20210;-72
2020/12/24 08:51:45;;;;;;;1.80;0.90;;;8.20;99.90;;;;;;4973121;28;20191;-71
2020/12/24 08:54:14;;;;;;;1.20;0.70;;;8.10;99.90;;;;;;4972961;28;20222;-71
2020/12/24 08:56:43;;;;;;;0.80;0.65;;;8.10;99.90;;;;;;4972901;28;20214;-71
2020/12/24 08:59:13;;;;;;;0.80;0.50;;;8.10;99.90;;;;;;4973203;28;20647;-71
2020/12/24 09:01:42;;;;;;;1.08;0.82;;;8.10;99.90;;;;;;4973175;28;20223;-71
2020/12/24 09:04:17;;;;;;;3.80;0.77;;;8.10;99.90;;;;;;4972999;28;20207;-71
2020/12/24 09:06:45;;;;;;;4.07;1.05;;;8.10;99.90;;;;;;4972559;28;20186;-70
2020/12/24 09:09:23;;;;;;;4.82;1.45;;;8.10;99.90;;;;;;4972677;28;20196;-72
2020/12/24 09:11:51;;;;;;;0.90;0.70;;;8.20;99.90;;;;;;4972860;28;20178;-71
2020/12/24 09:14:22;;;;;;;0.90;0.60;;;8.40;99.90;;;;;;4972600;28;20211;-70
2020/12/24 09:16:57;;;;;;;3.28;1.17;;;8.50;99.90;;;;;;4972747;28;20566;-72
2020/12/24 09:19:25;;;;;;;1.02;0.70;;;8.70;99.90;;;;;;4972700;28;20183;-73
2020/12/24 09:21:58;;;;;;;4.43;1.00;;;8.90;99.90;;;;;;4972617;28;20556;-73
2020/12/24 09:24:26;;;;;;;1.58;1.02;;;9.00;99.90;;;;;;4972637;28;20218;-73
2020/12/24 09:26:54;;;;;;;3.83;1.58;;;9.00;99.90;;;;;;4955283;28;20739;-74
2020/12/24 09:29:27;;;;;;;2.65;1.15;;;8.90;99.90;;;;;;4972792;28;20276;-75
2020/12/24 09:31:55;;;;;;;1.27;0.80;;;8.80;99.90;;;;;;4973132;28;20765;-74
2020/12/24 09:34:23;;;;;;;4.22;1.45;;;8.80;99.90;;;;;;4972948;28;20215;-73
2020/12/24 09:36:51;;;;;;;2.55;0.85;;;8.70;53.00;;;;;;4973628;28;20353;-74
2020/12/24 09:39:19;;;;;;;3.55;1.30;;;8.70;99.90;;;;;;4972839;28;20219;-73
2020/12/24 09:41:48;;;;;;;4.03;0.88;;;8.70;99.90;;;;;;4973397;28;20176;-73
2020/12/24 09:44:16;;;;;;;1.55;0.80;;;8.70;99.90;;;;;;4973116;28;20209;-72
2020/12/24 09:46:47;;;;;;;1.50;0.93;;;8.70;1.00;;;;;;4974348;28;20180;-73
2020/12/24 09:49:14;;;;;;;1.80;0.88;;;8.80;99.90;;;;;;4973044;28;20573;-71
2020/12/24 09:51:41;;;;;;;2.75;0.80;;;8.80;99.90;;;;;;4973235;28;20191;-71
2020/12/24 09:54:18;;;;;;;1.40;1.30;;;8.80;99.90;;;;;;4972858;28;20708;-73
2020/12/24 09:56:45;;;;;;;1.67;1.05;;;8.80;99.90;;;;;;4973072;28;20660;-72
2020/12/24 09:59:12;;;;;;;3.25;1.33;;;8.70;37.40;;;;;;4972694;28;20207;-70
2020/12/24 10:01:39;;;;;;;1.10;0.70;;;8.70;99.90;;;;;;4974207;28;20753;-70
2020/12/24 10:04:07;;;;;;;6.68;1.27;;;8.60;99.90;;;;;;4976625;28;20692;-72
2020/12/24 10:06:35;;;;;;;2.38;0.70;;;8.60;16.30;;;;;;4976204;28;20186;-72
2020/12/24 10:09:02;;;;;;;4.55;1.25;;;8.60;99.90;;;;;;4976801;28;20183;-73
2020/12/24 10:11:30;;;;;;;3.03;1.70;;;8.60;49.70;;;;;;4976363;28;20690;-72
2020/12/24 10:13:57;;;;;;;5.25;1.75;;;8.60;99.90;;;;;;4959288;28;20607;-73
2020/12/24 10:16:28;;;;;;;3.42;0.93;;;8.60;99.90;;;;;;4958354;28;20301;-72
2020/12/24 10:18:55;;;;;;;2.58;2.25;;;8.70;1.00;;;;;;4931509;28;20237;-74
2020/12/24 10:21:25;;;;;;;5.57;2.28;;;8.80;99.90;;;;;;4918155;29;20193;-74
2020/12/24 10:23:52;;;;;;;3.35;1.10;;;8.70;1.00;;;;;;4918454;29;20729;-73
2020/12/24 10:26:20;;;;;;;5.10;1.45;;;8.70;54.10;;;;;;4900995;29;20198;-74
2020/12/24 10:28:47;;;;;;;1.75;0.80;;;8.70;99.90;;;;;;4883057;29;20194;-73
2020/12/24 10:31:14;;;;;;;1.60;0.95;;;8.70;99.90;;;;;;4898996;29;20266;-70
2020/12/24 10:33:42;;;;;;;5.10;1.40;;;8.70;45.00;;;;;;4899193;29;20230;-71
2020/12/24 10:36:09;;;;;;;5.88;2.30;;;8.70;99.90;;;;;;4898985;29;20194;-71
2020/12/24 10:38:37;;;;;;;3.75;1.40;;;8.70;99.90;;;;;;4899034;29;20743;-70
2020/12/24 10:41:05;;;;;;;2.35;1.00;;;8.70;99.90;;;;;;4898871;29;20210;-69
2020/12/24 10:43:33;;;;;;;1.75;1.00;;;8.80;99.90;;;;;;4898069;29;20213;-73
2020/12/24 10:46:00;;;;;;;3.53;1.75;;;8.80;99.90;;;;;;4898190;29;20198;-72
2020/12/24 10:48:28;;;;;;;5.20;1.40;;;8.70;99.90;;;;;;4899582;29;20189;-71
2020/12/24 10:50:55;;;;;;;3.00;0.93;;;8.70;99.90;;;;;;4898481;29;20190;-69
2020/12/24 10:53:22;;;;;;;2.00;1.15;;;8.70;99.90;;;;;;4899370;29;20179;-72
2020/12/24 10:55:50;;;;;;;5.55;0.90;;;8.60;99.90;;;;;;4899247;29;20214;-71
2020/12/24 10:58:17;;;;;;;1.75;0.80;;;8.60;99.90;;;;;;4899105;29;20443;-70
2020/12/24 11:00:45;;;;;;;1.60;0.65;;;8.50;99.90;;;;;;4899335;29;20271;-72
2020/12/24 11:03:12;;;;;;;1.60;1.02;;;8.40;99.90;;;;;;4899808;29;20213;-70
2020/12/24 11:05:39;;;;;;;2.35;1.45;;;8.30;99.90;;;;;;4899987;29;20206;-70
2020/12/24 11:08:06;;;;;;;1.00;0.68;;;8.30;99.90;;;;;;4908290;29;20590;-70
2020/12/24 11:10:33;;;;;;;2.25;0.80;;;8.30;99.90;;;;;;4920464;29;20215;-69
2020/12/24 11:13:01;;;;;;;3.00;1.17;;;8.20;99.90;;;;;;4918565;29;20246;-71
2020/12/24 11:15:28;;;;;;;1.30;0.85;;;8.20;99.90;;;;;;4917982;29;20740;-71
2020/12/24 11:17:56;;;;;;;1.30;0.80;;;8.10;99.90;;;;;;4918361;29;20189;-69
2020/12/24 11:20:23;;;;;;;0.90;0.70;;;8.00;99.90;;;;;;4918610;29;20588;-70
2020/12/24 11:22:50;;;;;;;2.63;1.10;;;7.70;99.90;;;;;;4917750;29;20197;-69
2020/12/24 11:25:28;;;;;;;1.45;0.82;;;7.40;99.90;;;;;;4922164;29;20213;-71
2020/12/24 11:27:55;;;;;;;1.00;0.77;;;7.10;99.90;;;;;;4919333;29;20249;-71
2020/12/24 11:30:23;;;;;;;0.90;0.50;;;6.90;99.90;;;;;;4918846;29;20218;-71
2020/12/24 11:32:50;;;;;;;0.90;0.60;;;6.90;99.90;;;;;;4918334;29;20222;-71
2020/12/24 11:35:17;;;;;;;1.00;0.80;;;6.70;99.90;;;;;;4918938;29;20248;-70
2020/12/24 11:37:45;;;;;;;0.80;0.60;;;6.60;99.90;;;;;;4917767;29;20185;-72
2020/12/24 11:40:12;;;;;;;0.80;0.52;;;6.70;99.90;;;;;;4917182;29;20193;-71
2020/12/24 11:42:39;;;;;;;1.83;1.05;;;6.70;99.90;;;;;;4917498;29;20193;-73
2020/12/24 11:45:06;;;;;;;1.60;0.95;;;6.70;99.90;;;;;;4917802;29;20213;-69
2020/12/24 11:47:35;;;;;;;1.15;0.73;;;6.80;99.90;;;;;;4917617;29;20597;-70
2020/12/24 11:50:04;;;;;;;1.23;0.98;;;6.90;99.90;;;;;;4917946;29;20186;-70
2020/12/24 11:52:35;;;;;;;0.90;0.70;;;6.90;99.90;;;;;;4918277;29;20245;-69
2020/12/24 11:55:03;;;;;;;1.10;1.00;;;6.80;99.90;;;;;;4916982;29;20316;-69
2020/12/24 11:57:30;;;;;;;0.85;0.70;;;6.90;99.90;;;;;;4917261;29;20217;-70
2020/12/24 11:59:58;;;;;;;1.05;0.70;;;6.90;99.90;;;;;;4917929;29;20194;-70
2020/12/24 12:02:25;;;;;;;2.13;1.30;;;6.90;99.90;;;;;;4918198;29;20193;-69
2020/12/24 12:04:53;;;;;;;1.05;0.75;;;6.90;99.90;;;;;;4921142;29;20695;-69
2020/12/24 12:07:23;;;;;;;2.53;1.88;;;6.80;99.90;;;;;;4921135;29;20189;-69
2020/12/24 12:09:50;;;;;;;1.02;0.82;;;6.80;99.90;;;;;;4920976;29;20197;-70
2020/12/24 12:12:17;;;;;;;1.85;1.25;;;6.70;99.90;;;;;;4921601;29;20193;-70
2020/12/24 12:14:45;;;;;;;0.80;0.60;;;6.70;99.90;;;;;;4924522;29;20244;-70
2020/12/24 12:17:14;;;;;;;1.08;0.80;;;6.70;99.90;;;;;;4926049;29;20197;-71
2020/12/24 12:19:43;;;;;;;0.98;0.60;;;6.60;99.90;;;;;;4919316;29;20221;-69
2020/12/24 12:22:12;;;;;;;1.27;1.08;;;6.50;99.90;;;;;;4920636;29;20185;-70
2020/12/24 12:24:39;;;;;;;0.80;0.70;;;6.40;99.90;;;;;;4903558;29;20316;-69
2020/12/24 12:27:07;;;;;;;1.40;1.10;;;6.40;99.90;;;;;;4920798;29;20178;-69
2020/12/24 12:29:34;;;;;;;3.92;1.83;;;6.30;99.90;;;;;;4919221;29;20223;-70
2020/12/24 12:32:02;;;;;;;0.80;0.60;;;6.10;99.90;;;;;;4919917;29;20544;-68
2020/12/24 12:34:29;;;;;;;5.13;1.08;;;5.90;99.90;;;;;;4919065;29;20221;-68
2020/12/24 12:36:56;;;;;;;2.78;2.13;;;5.60;99.90;;;;;;4917291;29;20213;-67
2020/12/24 12:39:24;;;;;;;6.50;4.05;;;5.20;99.90;;;;;;4917801;29;20277;-67
2020/12/24 12:41:51;;;;;;;4.95;3.67;;;5.00;99.90;;;;;;4918306;29;20659;-67
2020/12/24 12:44:19;;;;;;;4.20;0.98;;;4.90;99.90;;;;;;4917491;29;20291;-67
2020/12/24 12:46:51;;;;;;;2.67;1.13;;;4.70;99.90;;;;;;4918176;29;20186;-67
2020/12/24 12:49:18;;;;;;;1.77;1.23;;;4.60;99.90;;;;;;4918010;29;20676;-69
2020/12/24 12:51:45;;;;;;;1.45;1.20;;;4.40;99.90;;;;;;4918309;29;20193;-68
2020/12/24 12:54:12;;;;;;;1.10;0.85;;;4.20;99.90;;;;;;4918430;29;20300;-72
2020/12/24 12:56:44;;;;;;;0.80;0.55;;;4.00;99.90;;;;;;4918421;29;20198;-74
2020/12/24 12:59:11;;;;;;;0.85;0.70;;;3.90;99.90;;;;;;4917721;29;20197;-72
2020/12/24 13:01:38;;;;;;;1.60;1.45;;;3.90;99.90;;;;;;4917856;29;20189;-72
2020/12/24 13:04:11;;;;;;;1.40;1.00;;;3.80;99.90;;;;;;4917056;29;20221;-72